createdAt,value
2022-12-14T00:02:54.256Z,-5.77
2022-12-14T00:05:56.792Z,-5.78
2022-12-14T00:09:01.757Z,-5.85
2022-12-14T00:12:04.459Z,-5.79
2022-12-14T00:15:07.440Z,-5.74
2022-12-14T00:18:10.914Z,-5.88
2022-12-14T00:21:14.718Z,-5.82
2022-12-14T00:24:16.997Z,-5.85
2022-12-14T00:27:19.622Z,-5.88
2022-12-14T00:30:22.007Z,-5.92
2022-12-14T00:33:24.398Z,-5.90
2022-12-14T00:36:26.797Z,-5.98
2022-12-14T00:39:29.068Z,-5.96
2022-12-14T00:42:31.837Z,-5.96
2022-12-14T00:45:34.238Z,-5.96
2022-12-14T00:48:36.788Z,-5.88
2022-12-14T00:51:39.208Z,-5.98
2022-12-14T00:54:42.381Z,-6.15
2022-12-14T00:57:44.608Z,-6.19
2022-12-14T01:00:48.482Z,-6.17
2022-12-14T01:03:51.215Z,-6.27
2022-12-14T01:06:55.067Z,-6.21
2022-12-14T01:09:57.475Z,-6.21
2022-12-14T01:12:59.777Z,-6.25
2022-12-14T01:16:15.287Z,-6.34
2022-12-14T01:19:17.705Z,-6.33
2022-12-14T01:22:20.093Z,-6.34
2022-12-14T01:25:22.606Z,-6.24
2022-12-14T01:28:24.932Z,-6.28
2022-12-14T01:31:32.031Z,-6.36
2022-12-14T01:34:34.472Z,-6.29
2022-12-14T01:37:36.783Z,-6.39
2022-12-14T01:40:39.068Z,-6.40
2022-12-14T01:43:56.486Z,-6.39
2022-12-14T01:47:12.125Z,-6.37
2022-12-14T01:50:36.388Z,-6.36
2022-12-14T01:53:38.786Z,-6.42
2022-12-14T01:56:43.864Z,-6.50
2022-12-14T01:59:47.727Z,-6.48
2022-12-14T02:03:12.493Z,-6.44
2022-12-14T02:06:20.512Z,-6.51
2022-12-14T02:09:26.331Z,-6.47
2022-12-14T02:12:35.931Z,-6.55
2022-12-14T02:15:39.457Z,-6.58
2022-12-14T02:18:41.734Z,-6.53
2022-12-14T02:22:20.965Z,-6.54
2022-12-14T02:25:56.050Z,-6.69
2022-12-14T02:29:22.922Z,-6.64
2022-12-14T02:32:42.533Z,-6.64
2022-12-14T02:36:01.615Z,-6.57
2022-12-14T02:39:19.176Z,-6.63
2022-12-14T02:42:47.722Z,-6.64
2022-12-14T02:46:19.761Z,-6.82
2022-12-14T02:49:50.487Z,-6.80
2022-12-14T02:52:52.779Z,-6.83
2022-12-14T02:55:58.278Z,-6.89
2022-12-14T02:59:01.478Z,-6.86
2022-12-14T03:02:04.610Z,-6.91
2022-12-14T03:05:07.327Z,-6.91
2022-12-14T03:08:13.003Z,-6.91
2022-12-14T03:11:19.863Z,-6.90
2022-12-14T03:14:32.161Z,-6.89
2022-12-14T03:17:34.525Z,-6.86
2022-12-14T03:20:37.982Z,-6.91
2022-12-14T03:23:40.459Z,-6.98
2022-12-14T03:26:55.264Z,-7.05
2022-12-14T03:30:01.129Z,-7.11
2022-12-14T03:33:06.643Z,-7.09
2022-12-14T03:36:38.172Z,-7.04
2022-12-14T03:39:41.761Z,-7.02
2022-12-14T03:43:02.393Z,-7.12
2022-12-14T03:46:13.873Z,-7.04
2022-12-14T03:49:39.662Z,-7.04
2022-12-14T03:52:59.606Z,-7.03
2022-12-14T03:56:19.183Z,-7.02
2022-12-14T03:59:36.237Z,-7.02
2022-12-14T04:02:46.406Z,-7.10
2022-12-14T04:06:29.285Z,-7.02
2022-12-14T04:09:45.922Z,-6.97
2022-12-14T04:13:07.411Z,-7.04
2022-12-14T04:16:32.894Z,-7.00
2022-12-14T04:20:00.379Z,-6.99
2022-12-14T04:23:13.634Z,-7.03
2022-12-14T04:26:18.441Z,-7.01
2022-12-14T04:29:47.093Z,-7.14
2022-12-14T04:32:52.520Z,-7.14
2022-12-14T04:35:56.857Z,-7.14
2022-12-14T04:39:06.369Z,-7.07
2022-12-14T04:42:09.580Z,-7.10
2022-12-14T04:45:17.108Z,-7.11
2022-12-14T04:48:26.167Z,-7.25
2022-12-14T04:51:41.272Z,-7.14
2022-12-14T04:54:58.433Z,-7.18
2022-12-14T04:58:11.037Z,-7.20
2022-12-14T05:01:28.957Z,-7.22
2022-12-14T05:05:18.236Z,-7.24
2022-12-14T05:08:41.727Z,-7.27
2022-12-14T05:12:06.837Z,-7.26
2022-12-14T05:15:17.618Z,-7.24
2022-12-14T05:18:20.163Z,-7.37
2022-12-14T05:21:41.245Z,-7.50
2022-12-14T05:24:43.518Z,-7.34
2022-12-14T05:27:46.293Z,-7.37
2022-12-14T05:30:48.905Z,-7.39
2022-12-14T05:33:51.587Z,-7.30
2022-12-14T05:36:54.644Z,-7.32
2022-12-14T05:39:56.983Z,-7.30
2022-12-14T05:43:11.071Z,-7.26
2022-12-14T05:46:13.541Z,-7.20
2022-12-14T05:49:16.507Z,-7.28
2022-12-14T05:52:18.916Z,-7.35
2022-12-14T05:55:21.375Z,-7.31
2022-12-14T05:58:23.670Z,-7.41
2022-12-14T06:01:26.076Z,-7.40
2022-12-14T06:04:28.478Z,-7.51
2022-12-14T06:07:30.945Z,-7.49
2022-12-14T06:10:33.271Z,-7.58
2022-12-14T06:13:40.090Z,-7.51
2022-12-14T06:16:44.369Z,-7.66
2022-12-14T06:19:50.063Z,-7.70
2022-12-14T06:22:55.350Z,-7.67
2022-12-14T06:25:57.817Z,-7.75
2022-12-14T06:29:00.492Z,-7.81
2022-12-14T06:32:02.855Z,-7.93
2022-12-14T06:35:05.941Z,-8.07
2022-12-14T06:38:08.697Z,-8.06
2022-12-14T06:41:11.112Z,-8.11
2022-12-14T06:44:14.822Z,-7.81
2022-12-14T06:47:17.168Z,-7.83
2022-12-14T06:50:19.538Z,-7.67
2022-12-14T06:53:21.919Z,-7.60
2022-12-14T06:56:26.333Z,-7.49
2022-12-14T06:59:28.717Z,-7.67
2022-12-14T07:02:31.563Z,-7.53
2022-12-14T07:05:33.980Z,-7.38
2022-12-14T07:08:39.089Z,-7.13
2022-12-14T07:11:41.707Z,-7.16
2022-12-14T07:14:43.947Z,-7.09
2022-12-14T07:17:46.446Z,-7.11
2022-12-14T07:21:04.087Z,-6.89
2022-12-14T07:24:07.212Z,-6.68
2022-12-14T07:27:09.729Z,-6.67
2022-12-14T07:30:12.538Z,-6.63
2022-12-14T07:33:14.972Z,-6.60
2022-12-14T07:36:19.128Z,-6.46
2022-12-14T07:39:22.210Z,-6.34
2022-12-14T07:42:24.578Z,-6.11
2022-12-14T07:45:27.176Z,-6.06
2022-12-14T07:48:29.954Z,-5.98
2022-12-14T07:51:37.265Z,-5.83
2022-12-14T07:54:39.623Z,-5.83
2022-12-14T07:57:41.992Z,-5.61
2022-12-14T08:00:44.274Z,-5.63
2022-12-14T08:03:49.268Z,-5.73
2022-12-14T08:06:51.750Z,-5.86
2022-12-14T08:09:54.135Z,-5.86
2022-12-14T08:12:56.453Z,-5.86
2022-12-14T08:16:13.634Z,-5.56
2022-12-14T08:19:17.074Z,-5.55
2022-12-14T08:22:19.572Z,-5.58
2022-12-14T08:25:21.983Z,-5.58
2022-12-14T08:28:24.908Z,-5.51
2022-12-14T08:31:28.405Z,-5.40
2022-12-14T08:34:30.775Z,-5.26
2022-12-14T08:37:33.037Z,-5.50
2022-12-14T08:40:36.253Z,-5.36
2022-12-14T08:43:39.233Z,-5.08
2022-12-14T08:46:42.541Z,-5.27
2022-12-14T08:49:45.289Z,-5.15
2022-12-14T08:52:48.691Z,-5.38
2022-12-14T08:55:51.146Z,-5.42
2022-12-14T08:58:53.659Z,-5.32
2022-12-14T09:01:56.298Z,-5.50
2022-12-14T09:04:58.804Z,-5.44
2022-12-14T09:08:01.098Z,-5.38
2022-12-14T09:11:05.143Z,-5.56
2022-12-14T09:14:07.499Z,-5.39
2022-12-14T09:17:09.834Z,-5.18
2022-12-14T09:20:13.784Z,-5.19
2022-12-14T09:23:16.096Z,-5.22
2022-12-14T09:26:23.782Z,-5.25
2022-12-14T09:29:26.311Z,-5.29
2022-12-14T09:32:31.835Z,-5.08
2022-12-14T09:35:34.190Z,-5.16
2022-12-14T09:38:38.042Z,-5.32
2022-12-14T09:41:57.687Z,-5.21
2022-12-14T09:45:22.680Z,-5.04
2022-12-14T09:48:26.123Z,-4.93
2022-12-14T09:51:36.762Z,-5.02
2022-12-14T09:54:40.527Z,-5.11
2022-12-14T09:57:43.462Z,-4.70
2022-12-14T10:01:10.361Z,-4.78
2022-12-14T10:04:21.728Z,-4.69
2022-12-14T10:07:40.658Z,-4.86
2022-12-14T10:10:54.167Z,-4.70
2022-12-14T10:14:44.079Z,-4.59
2022-12-14T10:18:01.953Z,-4.86
2022-12-14T10:21:13.749Z,-4.89
2022-12-14T10:24:21.140Z,-4.83
2022-12-14T10:27:25.783Z,-5.12
2022-12-14T10:30:28.638Z,-5.37
2022-12-14T10:33:32.587Z,-5.28
2022-12-14T10:36:40.570Z,-5.25
2022-12-14T10:40:12.469Z,-5.05
2022-12-14T10:43:37.269Z,-4.98
2022-12-14T10:46:59.839Z,-5.09
2022-12-14T10:50:39.392Z,-4.89
2022-12-14T10:53:47.888Z,-4.57
2022-12-14T10:56:51.268Z,-4.42
2022-12-14T11:00:07.643Z,-4.36
2022-12-14T11:03:15.860Z,-4.42
2022-12-14T11:06:20.155Z,-4.67
2022-12-14T11:09:24.063Z,-4.82
2022-12-14T11:12:27.744Z,-5.01
2022-12-14T11:15:37.945Z,-4.89
2022-12-14T11:18:41.352Z,-5.02
2022-12-14T11:21:44.382Z,-4.88
2022-12-14T11:24:48.726Z,-4.53
2022-12-14T11:27:51.188Z,-4.47
2022-12-14T11:31:16.193Z,-4.71
2022-12-14T11:34:35.000Z,-4.70
2022-12-14T11:37:37.610Z,-4.54
2022-12-14T11:40:40.043Z,-4.74
2022-12-14T11:43:42.442Z,-4.62
2022-12-14T11:47:00.309Z,-4.55
2022-12-14T11:50:02.673Z,-4.59
2022-12-14T11:53:11.278Z,-4.63
2022-12-14T11:56:16.825Z,-5.13
2022-12-14T11:59:19.936Z,-4.96
2022-12-14T12:02:31.747Z,-4.99
2022-12-14T12:05:39.245Z,-5.14
2022-12-14T12:08:42.809Z,-4.97
2022-12-14T12:11:45.866Z,-4.86
2022-12-14T12:14:49.026Z,-4.91
2022-12-14T12:17:55.278Z,-5.01
2022-12-14T12:21:25.410Z,-4.96
2022-12-14T12:25:16.710Z,-5.02
2022-12-14T12:28:27.640Z,-4.99
2022-12-14T12:31:34.017Z,-4.76
2022-12-14T12:34:55.778Z,-4.88
2022-12-14T12:38:02.784Z,-4.99
2022-12-14T12:41:23.771Z,-4.94
2022-12-14T12:44:41.489Z,-4.71
2022-12-14T12:47:48.428Z,-4.55
2022-12-14T12:50:54.124Z,-4.62
2022-12-14T12:54:00.879Z,-4.55
2022-12-14T12:57:04.883Z,-4.48
2022-12-14T13:00:10.030Z,-4.74
2022-12-14T13:03:27.953Z,-4.72
2022-12-14T13:06:40.911Z,-4.82
2022-12-14T13:09:53.985Z,-4.95
2022-12-14T13:13:09.598Z,-4.94
2022-12-14T13:16:28.775Z,-4.79
2022-12-14T13:19:51.906Z,-4.90
2022-12-14T13:22:59.526Z,-4.91
2022-12-14T13:26:56.683Z,-4.94
2022-12-14T13:30:06.610Z,-5.00
2022-12-14T13:33:45.853Z,-5.08
2022-12-14T13:36:59.479Z,-5.27
2022-12-14T13:40:25.255Z,-5.45
2022-12-14T13:43:27.491Z,-5.56
2022-12-14T13:46:30.356Z,-5.66
2022-12-14T13:49:33.711Z,-5.81
2022-12-14T13:52:41.833Z,-5.77
2022-12-14T13:55:55.930Z,-5.67
2022-12-14T13:58:59.484Z,-5.71
2022-12-14T14:02:02.884Z,-5.75
2022-12-14T14:05:20.370Z,-5.79
2022-12-14T14:08:42.137Z,-5.84
2022-12-14T14:11:45.214Z,-5.86
2022-12-14T14:14:52.518Z,-5.82
2022-12-14T14:17:56.014Z,-5.87
2022-12-14T14:21:13.308Z,-5.99
2022-12-14T14:24:18.636Z,-6.16
2022-12-14T14:27:36.158Z,-6.16
2022-12-14T14:30:51.438Z,-6.18
2022-12-14T14:33:56.445Z,-6.22
2022-12-14T14:36:58.850Z,-6.12
2022-12-14T14:40:16.664Z,-6.33
2022-12-14T14:43:49.731Z,-6.20
2022-12-14T14:46:52.453Z,-6.33
2022-12-14T14:50:00.125Z,-6.35
2022-12-14T14:53:28.981Z,-6.26
2022-12-14T14:56:31.248Z,-6.43
2022-12-14T14:59:50.715Z,-6.49
2022-12-14T15:02:55.378Z,-6.36
2022-12-14T15:05:58.835Z,-6.44
2022-12-14T15:09:21.388Z,-6.43
2022-12-14T15:12:31.703Z,-6.60
2022-12-14T15:15:38.287Z,-6.70
2022-12-14T15:18:40.616Z,-6.71
2022-12-14T15:21:42.935Z,-6.57
2022-12-14T15:24:46.485Z,-6.63
2022-12-14T15:27:48.707Z,-6.72
2022-12-14T15:30:51.038Z,-6.81
2022-12-14T15:33:53.371Z,-6.77
2022-12-14T15:36:56.035Z,-6.63
2022-12-14T15:40:07.561Z,-6.86
2022-12-14T15:43:20.943Z,-7.06
2022-12-14T15:46:29.017Z,-6.99
2022-12-14T15:49:31.322Z,-6.95
2022-12-14T15:52:33.672Z,-7.02
2022-12-14T15:55:38.549Z,-6.98
2022-12-14T15:58:41.063Z,-7.07
2022-12-14T16:01:53.239Z,-6.97
2022-12-14T16:04:58.759Z,-7.17
2022-12-14T16:08:01.119Z,-7.09
2022-12-14T16:11:13.160Z,-7.35
2022-12-14T16:14:22.771Z,-7.33
2022-12-14T16:17:35.010Z,-7.31
2022-12-14T16:20:38.540Z,-7.25
2022-12-14T16:23:45.369Z,-7.35
2022-12-14T16:26:57.308Z,-7.43
2022-12-14T16:30:07.110Z,-7.34
2022-12-14T16:33:20.277Z,-7.34
2022-12-14T16:36:25.782Z,-7.68
2022-12-14T16:39:47.771Z,-7.55
2022-12-14T16:42:50.545Z,-7.76
2022-12-14T16:45:55.914Z,-7.45
2022-12-14T16:49:21.563Z,-7.56
2022-12-14T16:52:32.856Z,-7.59
2022-12-14T16:56:15.356Z,-7.66
2022-12-14T16:59:29.525Z,-7.65
2022-12-14T17:02:45.938Z,-7.69
2022-12-14T17:05:53.215Z,-7.69
2022-12-14T17:08:55.634Z,-7.98
2022-12-14T17:12:03.699Z,-7.63
2022-12-14T17:15:06.785Z,-7.93
2022-12-14T17:18:10.303Z,-7.98
2022-12-14T17:21:24.995Z,-7.86
2022-12-14T17:24:27.679Z,-7.87
2022-12-14T17:27:30.579Z,-7.73
2022-12-14T17:30:33.266Z,-7.98
2022-12-14T17:33:35.581Z,-7.84
2022-12-14T17:36:38.022Z,-7.79
2022-12-14T17:39:40.319Z,-7.77
2022-12-14T17:42:45.703Z,-7.65
2022-12-14T17:45:48.177Z,-7.80
2022-12-14T17:48:50.589Z,-8.01
2022-12-14T17:51:52.888Z,-7.86
2022-12-14T17:54:55.201Z,-7.86
2022-12-14T17:57:58.127Z,-7.83
2022-12-14T18:01:00.525Z,-7.91
2022-12-14T18:04:02.964Z,-7.95
2022-12-14T18:07:05.480Z,-7.80
2022-12-14T18:10:08.540Z,-7.89
2022-12-14T18:13:12.317Z,-7.83
2022-12-14T18:16:17.770Z,-7.92
2022-12-14T18:19:20.072Z,-7.82
2022-12-14T18:22:22.464Z,-7.80
2022-12-14T18:25:34.837Z,-7.99
2022-12-14T18:28:37.177Z,-7.81
2022-12-14T18:31:40.443Z,-7.79
2022-12-14T18:34:42.824Z,-7.85
2022-12-14T18:37:45.103Z,-7.80
2022-12-14T18:40:53.788Z,-7.88
2022-12-14T18:43:56.562Z,-7.92
2022-12-14T18:47:14.707Z,-7.88
2022-12-14T18:50:22.202Z,-7.98
2022-12-14T18:53:24.927Z,-7.76
2022-12-14T18:56:29.307Z,-7.90
2022-12-14T18:59:31.679Z,-7.81
2022-12-14T19:02:34.132Z,-7.82
2022-12-14T19:05:36.667Z,-8.01
2022-12-14T19:08:39.745Z,-7.92
2022-12-14T19:11:42.698Z,-7.86
2022-12-14T19:14:45.033Z,-7.85
2022-12-14T19:17:52.206Z,-7.91
2022-12-14T19:20:54.557Z,-7.91
2022-12-14T19:23:59.487Z,-7.80
2022-12-14T19:27:02.314Z,-7.87
2022-12-14T19:30:06.880Z,-7.99
2022-12-14T19:33:10.529Z,-7.85
2022-12-14T19:36:13.039Z,-7.81
2022-12-14T19:39:15.334Z,-7.96
2022-12-14T19:42:18.508Z,-7.78
2022-12-14T19:45:21.122Z,-7.86
2022-12-14T19:48:23.442Z,-7.99
2022-12-14T19:51:25.945Z,-7.91
2022-12-14T19:54:30.937Z,-8.03
2022-12-14T19:57:33.453Z,-7.98
2022-12-14T20:00:35.883Z,-8.08
2022-12-14T20:03:39.548Z,-7.97
2022-12-14T20:06:44.104Z,-8.01
2022-12-14T20:09:46.404Z,-7.91
2022-12-14T20:12:48.746Z,-8.05
2022-12-14T20:16:00.212Z,-7.94
2022-12-14T20:19:02.557Z,-8.06
2022-12-14T20:22:05.414Z,-8.05
2022-12-14T20:25:07.998Z,-7.94
2022-12-14T20:28:10.348Z,-8.13
2022-12-14T20:31:15.256Z,-8.09
2022-12-14T20:34:17.675Z,-8.08
2022-12-14T20:37:20.082Z,-8.06
2022-12-14T20:40:22.747Z,-8.04
2022-12-14T20:43:25.045Z,-8.00
2022-12-14T20:46:34.252Z,-7.98
2022-12-14T20:49:38.933Z,-8.17
2022-12-14T20:52:41.277Z,-8.14
2022-12-14T20:55:43.613Z,-8.11
2022-12-14T20:58:47.992Z,-7.96
2022-12-14T21:01:55.831Z,-7.99
2022-12-14T21:04:58.894Z,-8.26
2022-12-14T21:08:01.210Z,-8.22
2022-12-14T21:11:23.986Z,-8.12
2022-12-14T21:14:32.473Z,-8.05
2022-12-14T21:17:34.929Z,-8.01
2022-12-14T21:20:37.382Z,-8.04
2022-12-14T21:23:41.532Z,-7.98
2022-12-14T21:26:44.195Z,-8.00
2022-12-14T21:29:52.310Z,-8.27
2022-12-14T21:32:54.638Z,-8.27
2022-12-14T21:35:56.998Z,-8.11
2022-12-14T21:38:59.543Z,-7.97
2022-12-14T21:42:12.798Z,-8.00
2022-12-14T21:45:15.183Z,-7.96
2022-12-14T21:48:17.494Z,-7.99
2022-12-14T21:51:20.200Z,-8.02
2022-12-14T21:54:22.999Z,-8.06
2022-12-14T21:57:49.388Z,-8.23
2022-12-14T22:00:53.004Z,-8.15
2022-12-14T22:03:55.398Z,-8.13
2022-12-14T22:06:59.094Z,-8.07
2022-12-14T22:10:01.815Z,-8.19
2022-12-14T22:13:04.237Z,-8.22
2022-12-14T22:16:07.662Z,-8.20
2022-12-14T22:19:15.121Z,-8.19
2022-12-14T22:22:17.728Z,-8.16
2022-12-14T22:25:20.024Z,-8.35
2022-12-14T22:28:22.819Z,-8.32
2022-12-14T22:31:25.922Z,-8.24
2022-12-14T22:34:28.288Z,-8.36
2022-12-14T22:37:30.899Z,-8.31
2022-12-14T22:40:33.390Z,-8.49
2022-12-14T22:43:37.531Z,-8.31
2022-12-14T22:46:40.690Z,-8.36
2022-12-14T22:49:43.398Z,-8.38
2022-12-14T22:52:49.525Z,-8.42
2022-12-14T22:55:52.305Z,-8.31
2022-12-14T22:59:09.796Z,-8.31
2022-12-14T23:02:12.263Z,-8.44
2022-12-14T23:05:14.860Z,-8.47
2022-12-14T23:08:17.218Z,-8.46
2022-12-14T23:11:38.257Z,-8.57
2022-12-14T23:14:59.344Z,-8.50
2022-12-14T23:18:22.209Z,-8.39
2022-12-14T23:21:43.222Z,-8.57
2022-12-14T23:25:04.054Z,-8.54
2022-12-14T23:28:25.235Z,-8.62
2022-12-14T23:31:46.172Z,-8.61
2022-12-14T23:35:07.026Z,-8.72
2022-12-14T23:38:28.809Z,-8.81
2022-12-14T23:41:50.112Z,-8.82
2022-12-14T23:45:11.009Z,-8.85
2022-12-14T23:48:31.896Z,-8.91
2022-12-14T23:51:53.040Z,-8.88
2022-12-14T23:55:14.102Z,-8.94
2022-12-14T23:58:34.951Z,-8.93
